Time;durP1;ratioP1;P1;durP2;ratioP2;P2;SDS_P1;SDS_P2;PMS_P1;PMS_P2;Temp;Humidity;BMP_temperature;BMP_pressure;BME280_temperature;BME280_humidity;BME280_pressure;Samples;Min_cycle;Max_cycle;Signal;HPM_P1;HPM_P2
2022/10/05 00:00:25;;;;;;;2.45;1.65;;;;;;;14.17;100.00;101755.31;5049211;28;20079;-84
2022/10/05 00:02:53;;;;;;;4.32;1.70;;;;;;;14.17;100.00;101754.47;5048445;28;20381;-81
2022/10/05 00:05:39;;;;;;;4.22;1.70;;;;;;;14.17;100.00;101758.00;5048800;28;20053;-83
2022/10/05 00:08:14;;;;;;;4.78;1.50;;;;;;;14.17;100.00;101749.97;5048344;28;20067;-81
2022/10/05 00:10:41;;;;;;;2.80;1.42;;;;;;;14.15;100.00;101727.81;5048686;28;20075;-80
2022/10/05 00:13:19;;;;;;;3.33;1.77;;;;;;;14.16;100.00;101734.88;5048954;28;20210;-82
2022/10/05 00:15:45;;;;;;;6.80;1.42;;;;;;;14.16;100.00;101742.91;5048892;28;20029;-84
2022/10/05 00:18:16;;;;;;;3.33;1.67;;;;;;;14.15;100.00;101738.53;5047383;28;20487;-82
2022/10/05 00:20:42;;;;;;;1.58;1.30;;;;;;;14.14;100.00;101746.69;5048595;28;20033;-83
2022/10/05 00:23:15;;;;;;;6.60;1.63;;;;;;;14.13;100.00;101748.53;5047287;28;20083;-81
2022/10/05 00:25:40;;;;;;;2.05;1.40;;;;;;;14.12;100.00;101746.84;5050865;28;20052;-84
2022/10/05 00:28:16;;;;;;;2.17;1.35;;;;;;;14.14;100.00;101744.88;5051809;28;20114;-81
2022/10/05 00:30:42;;;;;;;3.72;1.40;;;;;;;14.10;100.00;101733.59;5053221;28;20021;-81
2022/10/05 00:33:07;;;;;;;1.92;1.20;;;;;;;14.09;100.00;101739.09;5052801;28;20033;-80
2022/10/05 00:35:34;;;;;;;3.08;1.67;;;;;;;14.08;100.00;101732.91;5052698;28;20404;-79
2022/10/05 00:38:00;;;;;;;2.50;1.40;;;;;;;14.12;100.00;101728.09;5052717;28;20114;-81
2022/10/05 00:40:47;;;;;;;4.80;1.38;;;;;;;14.11;100.00;101726.44;5052374;28;20033;-79
2022/10/05 00:43:22;;;;;;;1.88;1.30;;;;;;;14.13;100.00;101718.28;5051908;28;20351;-82
2022/10/05 00:46:01;;;;;;;4.30;1.63;;;;;;;14.10;100.00;101712.19;5051819;28;20066;-80
2022/10/05 00:48:39;;;;;;;3.42;1.50;;;;;;;14.09;100.00;101705.19;5052237;28;20102;-79
2022/10/05 00:51:15;;;;;;;4.88;1.60;;;;;;;14.08;100.00;101698.13;5051700;28;20030;-82
2022/10/05 00:54:08;;;;;;;3.25;1.70;;;;;;;14.10;100.00;101692.63;5051963;28;20033;-80
2022/10/05 00:56:52;;;;;;;1.67;1.30;;;;;;;14.13;100.00;101694.19;5051897;28;20049;-80
2022/10/05 00:59:46;;;;;;;2.35;1.30;;;;;;;14.13;100.00;101694.19;5066684;28;20140;-83
2022/10/05 01:02:19;;;;;;;2.97;1.35;;;;;;;14.12;100.00;101687.97;5051665;28;20120;-80
2022/10/05 01:05:00;;;;;;;3.65;1.38;;;;;;;14.15;100.00;101676.97;5051784;28;20049;-81
2022/10/05 01:07:39;;;;;;;6.38;1.60;;;;;;;14.13;100.00;101675.44;5051624;28;20041;-81
2022/10/05 01:10:33;;;;;;;2.45;1.35;;;;;;;14.12;100.00;101663.88;5051624;28;20033;-81
2022/10/05 01:13:09;;;;;;;4.78;1.60;;;;;;;14.10;100.00;101663.19;5046897;28;20130;-83
2022/10/05 01:16:16;;;;;;;3.13;1.23;;;;;;;14.12;100.00;101658.53;5051267;28;20060;-80
2022/10/05 01:18:50;;;;;;;4.00;1.05;;;;;;;14.10;100.00;101663.19;5046898;28;20456;-81
2022/10/05 01:21:25;;;;;;;1.95;1.20;;;;;;;14.10;100.00;101665.88;5051206;28;20103;-81
2022/10/05 01:24:05;;;;;;;5.90;1.60;;;;;;;14.08;100.00;101668.69;5051284;28;20464;-80
2022/10/05 01:26:52;;;;;;;3.05;1.20;;;;;;;14.08;100.00;101663.34;5051191;28;20036;-81
2022/10/05 01:29:31;;;;;;;5.05;1.30;;;;;;;14.08;100.00;101663.34;5050874;28;20036;-82
2022/10/05 01:32:13;;;;;;;1.73;1.00;;;;;;;14.08;100.00;101663.34;5051160;28;20488;-82
2022/10/05 01:34:43;;;;;;;3.45;1.30;;;;;;;14.09;100.00;101653.47;5051228;28;20104;-84
2022/10/05 01:37:20;;;;;;;2.38;1.10;;;;;;;14.08;100.00;101647.28;5051065;28;20070;-82
2022/10/05 01:40:30;;;;;;;3.80;1.02;;;;;;;14.07;100.00;101648.25;5050987;28;20039;-80
2022/10/05 01:43:07;;;;;;;2.90;1.10;;;;;;;14.08;100.00;101622.38;5035479;28;20132;-81
2022/10/05 01:45:52;;;;;;;2.45;1.52;;;;;;;14.06;100.00;101613.63;5051416;28;20098;-81
2022/10/05 01:48:39;;;;;;;15.23;1.58;;;;;;;14.08;100.00;101598.28;5050623;28;20036;-83
2022/10/05 01:51:04;;;;;;;9.27;2.33;;;;;;;14.03;100.00;101601.41;5066712;28;20025;-83
2022/10/05 01:53:50;;;;;;;2.65;1.58;;;;;;;14.00;100.00;101616.88;5050975;28;20335;-82
2022/10/05 01:56:29;;;;;;;4.43;1.90;;;;;;;13.99;100.00;101605.34;5039863;28;20037;-85
2022/10/05 01:59:06;;;;;;;4.10;1.60;;;;;;;13.95;100.00;101590.53;5051091;28;20029;-81
2022/10/05 02:01:41;;;;;;;5.93;1.80;;;;;;;13.91;100.00;101600.69;5051059;28;20404;-81
2022/10/05 02:04:17;;;;;;;2.25;1.60;;;;;;;13.88;100.00;101582.25;5050857;28;20048;-81
2022/10/05 02:06:45;;;;;;;3.30;1.90;;;;;;;13.89;100.00;101570.56;5050635;28;20032;-82
2022/10/05 02:09:19;;;;;;;7.45;1.90;;;;;;;13.86;100.00;101576.19;5066126;28;20208;-83
2022/10/05 02:11:52;;;;;;;3.25;1.73;;;;;;;13.85;100.00;101577.19;5051074;28;20138;-80
2022/10/05 02:14:23;;;;;;;4.95;1.70;;;;;;;13.83;100.00;101586.34;5050507;28;20036;-82
2022/10/05 02:16:52;;;;;;;4.63;2.00;;;;;;;13.82;100.00;101580.13;5065989;28;20094;-82
2022/10/05 02:19:22;;;;;;;3.50;1.90;;;;;;;13.82;100.00;101590.00;5050530;28;20033;-82
2022/10/05 02:22:11;;;;;;;5.03;2.00;;;;;;;13.81;100.00;101585.63;5050383;28;20385;-82
2022/10/05 02:24:45;;;;;;;2.90;1.92;;;;;;;13.79;100.00;101582.25;5065598;28;20274;-81
2022/10/05 02:27:17;;;;;;;3.90;1.90;;;;;;;13.74;100.00;101580.00;5050142;28;20036;-84
2022/10/05 02:29:47;;;;;;;5.95;2.03;;;;;;;13.69;100.00;101584.91;5052046;28;20028;-81
2022/10/05 02:32:18;;;;;;;3.75;1.80;;;;;;;13.65;100.00;101570.16;5054188;28;20166;-81
2022/10/05 02:34:44;;;;;;;8.88;1.88;;;;;;;13.60;100.00;101570.59;5050210;28;20171;-82
2022/10/05 02:37:27;;;;;;;6.93;1.98;;;;;;;13.53;100.00;101583.66;5050530;28;20067;-83
2022/10/05 02:40:14;;;;;;;3.97;1.77;;;;;;;13.53;100.00;101577.50;5065467;28;20346;-81
2022/10/05 02:43:01;;;;;;;8.55;2.22;;;;;;;13.57;100.00;101590.44;5050160;28;20039;-82
2022/10/05 02:45:34;;;;;;;4.00;1.90;;;;;;;13.65;100.00;101584.38;5050129;28;20052;-81
2022/10/05 02:48:32;;;;;;;5.85;2.35;;;;;;;13.68;100.00;101578.75;5064474;28;20381;-81
2022/10/05 02:51:26;;;;;;;3.58;2.00;;;;;;;13.74;100.00;101574.66;5049834;28;20397;-80
2022/10/05 02:54:03;;;;;;;6.20;2.35;;;;;;;13.73;100.00;101579.19;5047909;28;20112;-80
2022/10/05 02:56:39;;;;;;;2.83;1.85;;;;;;;13.72;100.00;101585.50;5048404;28;20033;-80
2022/10/05 02:59:13;;;;;;;5.57;2.53;;;;;;;13.75;100.00;101587.06;5048487;28;20079;-80
2022/10/05 03:02:03;;;;;;;7.13;2.60;;;;;;;13.76;100.00;101591.41;5049846;28;20095;-81
2022/10/05 03:04:46;;;;;;;3.97;2.10;;;;;;;13.77;100.00;101585.06;5049965;28;20056;-82
2022/10/05 03:07:22;;;;;;;4.22;2.10;;;;;;;13.78;100.00;101580.56;5049994;28;20032;-81
2022/10/05 03:10:07;;;;;;;2.47;2.05;;;;;;;13.77;100.00;101578.91;5049629;28;20033;-81
2022/10/05 03:13:01;;;;;;;2.75;2.00;;;;;;;13.76;100.00;101580.69;5049312;28;20041;-81
2022/10/05 03:15:41;;;;;;;4.90;2.10;;;;;;;13.73;100.00;101586.34;5049710;28;20033;-81
2022/10/05 03:18:06;;;;;;;9.25;2.42;;;;;;;13.71;100.00;101573.09;5049440;28;20110;-82
2022/10/05 03:20:34;;;;;;;6.03;1.90;;;;;;;13.71;100.00;101572.28;5049240;28;20135;-82
2022/10/05 03:23:03;;;;;;;5.43;2.30;;;;;;;13.70;100.00;101574.13;5064575;28;20116;-80
2022/10/05 03:25:40;;;;;;;4.55;2.10;;;;;;;13.72;100.00;101576.66;5049856;28;20218;-80
2022/10/05 03:28:28;;;;;;;3.15;2.38;;;;;;;13.71;100.00;101561.56;5049911;28;20123;-80
2022/10/05 03:31:02;;;;;;;3.20;2.40;;;;;;;13.73;100.00;101557.78;5047888;28;20366;-81
2022/10/05 03:33:44;;;;;;;4.35;2.08;;;;;;;13.74;100.00;101554.09;5049523;28;20136;-80
2022/10/05 03:36:21;;;;;;;3.45;2.35;;;;;;;13.72;100.00;101560.59;5048194;28;20380;-80
2022/10/05 03:39:10;;;;;;;3.47;2.40;;;;;;;13.72;100.00;101552.59;5049248;28;20025;-79
2022/10/05 03:41:55;;;;;;;4.28;2.42;;;;;;;13.71;100.00;101556.22;5048629;28;20047;-82
2022/10/05 03:44:28;;;;;;;4.28;2.40;;;;;;;13.72;100.00;101560.59;5049434;28;20045;-82
2022/10/05 03:47:22;;;;;;;3.00;2.47;;;;;;;13.71;100.00;101553.56;5048797;28;20120;-81
2022/10/05 03:50:28;;;;;;;3.53;2.53;;;;;;;13.69;100.00;101560.84;5041733;28;20063;-81
2022/10/05 03:53:00;;;;;;;9.05;3.60;;;;;;;13.68;100.00;101553.84;5048714;28;20431;-80
2022/10/05 03:55:41;;;;;;;6.25;2.80;;;;;;;13.67;100.00;101549.47;5049406;28;20052;-81
2022/10/05 03:58:14;;;;;;;2.97;2.53;;;;;;;13.66;100.00;101555.78;5049083;28;20112;-81
2022/10/05 04:00:45;;;;;;;6.65;2.78;;;;;;;13.65;100.00;101552.28;5052722;28;20043;-79
2022/10/05 04:03:27;;;;;;;4.40;2.63;;;;;;;13.66;100.00;101561.16;5068696;28;20045;-80
2022/10/05 04:05:58;;;;;;;4.70;2.80;;;;;;;13.65;100.00;101552.28;5053197;28;20057;-80
2022/10/05 04:08:44;;;;;;;4.60;2.70;;;;;;;13.65;100.00;101552.28;5068418;28;20334;-81
2022/10/05 04:11:24;;;;;;;2.70;2.50;;;;;;;13.62;100.00;101541.88;5053162;28;20071;-80
2022/10/05 04:13:56;;;;;;;4.38;2.90;;;;;;;13.61;100.00;101542.84;5053202;28;20131;-79
2022/10/05 04:16:27;;;;;;;9.30;2.90;;;;;;;13.61;100.00;101545.53;5053714;28;20071;-81
2022/10/05 04:19:18;;;;;;;3.97;2.50;;;;;;;13.60;100.00;101541.19;5053016;28;20041;-79
2022/10/05 04:21:51;;;;;;;3.33;2.47;;;;;;;13.61;100.00;101539.34;5051050;28;20049;-80
2022/10/05 04:24:22;;;;;;;7.32;2.72;;;;;;;13.61;100.00;101536.66;5052346;28;20350;-82
2022/10/05 04:26:55;;;;;;;7.13;2.20;;;;;;;13.60;100.00;101529.63;5052113;28;20637;-82
2022/10/05 04:29:47;;;;;;;3.95;2.00;;;;;;;13.60;100.00;101521.59;5052824;28;20487;-81
2022/10/05 04:32:38;;;;;;;4.70;2.42;;;;;;;13.61;100.00;101520.63;5053100;28;20028;-81
2022/10/05 04:35:40;;;;;;;3.85;2.30;;;;;;;13.58;100.00;101516.41;5052452;28;20112;-83
2022/10/05 04:38:27;;;;;;;2.20;2.00;;;;;;;13.59;100.00;101507.41;5052510;28;20033;-81
2022/10/05 04:41:08;;;;;;;3.03;2.30;;;;;;;13.61;100.00;101509.94;5067740;28;20075;-82
2022/10/05 04:43:45;;;;;;;2.78;2.08;;;;;;;13.62;100.00;101514.31;5052348;28;20041;-81
2022/10/05 04:46:20;;;;;;;3.33;2.00;;;;;;;13.61;100.00;101509.94;5052324;28;20182;-83
2022/10/05 04:49:07;;;;;;;3.55;2.03;;;;;;;13.58;100.00;101495.88;5052512;28;20106;-84
2022/10/05 04:51:41;;;;;;;2.58;1.90;;;;;;;13.56;100.00;101499.66;5067614;28;20482;-83
2022/10/05 04:54:32;;;;;;;2.17;1.98;;;;;;;13.52;100.00;101498.25;5052398;28;20075;-84
2022/10/05 04:57:01;;;;;;;5.70;2.00;;;;;;;13.50;100.00;101500.25;5051805;28;20047;-82
2022/10/05 04:59:44;;;;;;;2.17;1.83;;;;;;;13.44;100.00;101492.78;5051765;28;20442;-82
2022/10/05 05:02:21;;;;;;;5.35;1.73;;;;;;;13.43;100.00;101486.59;5051627;28;20033;-83
2022/10/05 05:05:17;;;;;;;2.20;1.48;;;;;;;13.41;100.00;101485.91;5051796;28;20125;-84
2022/10/05 05:07:59;;;;;;;1.60;1.50;;;;;;;13.39;100.00;101487.84;5051721;28;20033;-82
2022/10/05 05:10:51;;;;;;;1.92;1.40;;;;;;;13.35;100.00;101489.13;5066638;28;20036;-84
2022/10/05 05:13:45;;;;;;;3.15;1.50;;;;;;;13.35;100.00;101489.13;5051920;28;20029;-81
2022/10/05 05:16:38;;;;;;;2.47;1.50;;;;;;;13.33;100.00;101481.22;5026101;28;20041;-81
2022/10/05 05:19:42;;;;;;;1.77;1.48;;;;;;;13.36;100.00;101493.47;5049601;28;20152;-83
2022/10/05 05:22:24;;;;;;;1.90;1.30;;;;;;;13.36;100.00;101475.63;4970803;28;20146;-80
2022/10/05 05:25:03;;;;;;;1.83;1.38;;;;;;;13.36;100.00;101477.44;4971149;28;20061;-83
2022/10/05 05:28:05;;;;;;;1.42;1.13;;;;;;;13.36;100.00;101475.63;5024779;28;20084;-81
2022/10/05 05:30:41;;;;;;;2.08;1.50;;;;;;;13.37;100.00;101473.78;5053615;28;20373;-80
2022/10/05 05:33:15;;;;;;;2.90;1.50;;;;;;;13.35;100.00;101473.94;5054355;28;20032;-81
2022/10/05 05:35:56;;;;;;;2.33;1.15;;;;;;;13.37;100.00;101473.78;5051710;28;20132;-82
2022/10/05 05:38:29;;;;;;;2.08;1.17;;;;;;;13.40;100.00;101473.50;5052059;28;20106;-81
2022/10/05 05:41:23;;;;;;;3.17;2.08;;;;;;;13.46;100.00;101482.78;5051974;28;20052;-81
2022/10/05 05:44:21;;;;;;;3.63;1.40;;;;;;;13.48;100.00;101475.47;5051701;28;20064;-82
2022/10/05 05:47:22;;;;;;;1.40;1.30;;;;;;;13.47;100.00;101466.63;5037792;28;20048;-82
2022/10/05 05:50:20;;;;;;;3.85;1.60;;;;;;;13.50;100.00;101468.16;5033094;28;20041;-80
2022/10/05 05:52:59;;;;;;;3.38;1.20;;;;;;;13.48;100.00;101462.97;5042777;28;20041;-82
2022/10/05 05:55:27;;;;;;;2.22;1.20;;;;;;;13.49;100.00;101469.97;5066175;28;20041;-80
2022/10/05 05:57:57;;;;;;;1.38;1.17;;;;;;;13.52;100.00;101468.84;5051019;28;20052;-82
2022/10/05 06:00:28;;;;;;;3.90;1.40;;;;;;;13.55;100.00;101471.25;5051484;28;20064;-77
2022/10/05 06:03:09;;;;;;;3.75;1.30;;;;;;;13.56;100.00;101478.28;5050982;28;20695;-85
2022/10/05 06:05:43;;;;;;;1.95;1.20;;;;;;;13.58;100.00;101471.81;5049672;28;20045;-76
2022/10/05 06:08:14;;;;;;;3.92;1.30;;;;;;;13.60;100.00;101474.34;5051672;28;20033;-79
2022/10/05 06:10:46;;;;;;;;;;;;;;;13.62;100.00;101476.88;5051529;28;20032;-81
2022/10/05 06:13:31;;;;;;;2.35;1.35;;;;;;;13.61;100.00;101477.84;5051245;28;19916;-81
2022/10/05 06:16:07;;;;;;;1.45;1.35;;;;;;;13.61;100.00;101481.34;5051638;28;20028;-79
2022/10/05 06:18:35;;;;;;;2.22;1.27;;;;;;;13.63;100.00;101482.06;5051095;28;20029;-81
2022/10/05 06:21:31;;;;;;;3.78;1.38;;;;;;;13.65;100.00;101472.06;5049651;28;20461;-79
2022/10/05 06:24:11;;;;;;;2.15;1.40;;;;;;;13.67;100.00;101478.09;5049994;28;20120;-81
2022/10/05 06:27:18;;;;;;;2.28;1.63;;;;;;;13.68;100.00;101492.34;5051080;28;20025;-80
2022/10/05 06:29:56;;;;;;;8.95;1.67;;;;;;;13.69;100.00;101480.63;5050684;28;20041;-79
2022/10/05 06:32:48;;;;;;;2.53;1.60;;;;;;;13.70;100.00;101485.88;5050366;28;20246;-84
2022/10/05 06:35:19;;;;;;;3.35;1.80;;;;;;;13.74;100.00;101478.38;5050927;28;20382;-85
2022/10/05 06:38:16;;;;;;;2.92;1.60;;;;;;;13.78;100.00;101473.56;5050999;28;20103;-82
2022/10/05 06:41:03;;;;;;;5.90;1.80;;;;;;;13.81;100.00;101476.81;5050324;28;20097;-83
2022/10/05 06:43:34;;;;;;;4.22;1.70;;;;;;;13.85;100.00;101480.91;5051063;28;20077;-82
2022/10/05 06:46:07;;;;;;;;;;;;;;;13.88;100.00;101474.41;5051116;28;20025;-80
2022/10/05 06:49:09;;;;;;;5.32;1.77;;;;;;;13.93;100.00;101488.19;5050240;28;19917;-81
2022/10/05 06:51:39;;;;;;;6.28;2.60;;;;;;;13.92;100.00;101479.31;5049524;28;20028;-80
2022/10/05 06:54:22;;;;;;;3.72;2.22;;;;;;;13.95;100.00;101485.38;5065607;28;20029;-82
2022/10/05 06:57:31;;;;;;;3.33;1.90;;;;;;;13.99;100.00;101481.41;5050738;28;20044;-80
2022/10/05 07:00:02;;;;;;;2.35;1.95;;;;;;;13.97;100.00;101486.91;4992777;28;20041;-81
2022/10/05 07:02:57;;;;;;;7.57;1.80;;;;;;;13.96;100.00;101487.91;5050641;28;20025;-80
2022/10/05 07:05:50;;;;;;;3.95;1.80;;;;;;;13.95;100.00;101488.88;5032136;28;20410;-78
2022/10/05 07:08:28;;;;;;;1.98;1.80;;;;;;;13.92;100.00;101490.00;5050443;28;20444;-79
2022/10/05 07:11:12;;;;;;;2.58;1.77;;;;;;;13.95;100.00;101478.19;5050028;28;20041;-81
2022/10/05 07:14:18;;;;;;;2.25;1.60;;;;;;;13.95;100.00;101483.53;5050165;28;20029;-80
2022/10/05 07:17:10;;;;;;;3.05;2.28;;;;;;;13.97;100.00;101473.53;5049295;28;20491;-78
2022/10/05 07:19:46;;;;;;;3.63;1.83;;;;;;;14.01;100.00;101468.75;5050381;28;20469;-79
2022/10/05 07:22:54;;;;;;;3.47;1.80;;;;;;;14.02;100.00;101473.94;5050618;28;20442;-79
2022/10/05 07:25:22;;;;;;;2.95;1.70;;;;;;;14.05;100.00;101462.94;5041027;28;20041;-79
2022/10/05 07:28:15;;;;;;;4.78;2.00;;;;;;;14.05;100.00;101470.13;5050336;28;20056;-78
2022/10/05 07:31:09;;;;;;;2.80;2.00;;;;;;;14.11;100.00;101473.06;5050323;28;20101;-79
2022/10/05 07:34:03;;;;;;;9.68;1.85;;;;;;;14.18;100.00;101470.66;5032386;28;20141;-79
2022/10/05 07:40:06;;;;;;;9.18;2.15;;;;;;;14.26;100.00;101461.88;4994802;28;20041;-81
2022/10/05 07:42:52;;;;;;;1.90;1.80;;;;;;;14.29;100.00;101466.94;5049762;28;20044;-80
2022/10/05 07:45:38;;;;;;;4.40;2.10;;;;;;;14.37;100.00;101460.84;5056931;28;20177;-78
2022/10/05 07:48:19;;;;;;;3.90;2.35;;;;;;;14.39;100.00;101458.84;5056965;28;20037;-81
2022/10/05 07:51:06;;;;;;;2.35;1.80;;;;;;;14.39;100.00;101461.53;5056716;28;20033;-84
2022/10/05 07:53:35;;;;;;;2.13;1.85;;;;;;;14.41;100.00;101454.19;5057221;28;20073;-82
2022/10/05 07:56:21;;;;;;;8.85;1.90;;;;;;;14.42;100.00;101456.72;5056762;28;20051;-81
2022/10/05 07:58:53;;;;;;;4.45;2.00;;;;;;;14.41;100.00;101457.72;5056777;28;20036;-84
2022/10/05 08:01:22;;;;;;;2.28;1.88;;;;;;;14.42;100.00;101456.72;5057001;28;20071;-78
2022/10/05 08:04:09;;;;;;;2.38;1.73;;;;;;;14.43;100.00;101450.34;5055313;28;20099;-80
2022/10/05 08:06:46;;;;;;;7.10;1.90;;;;;;;14.48;100.00;101457.97;5056702;28;20108;-81
2022/10/05 08:09:17;;;;;;;4.60;1.95;;;;;;;14.48;100.00;101452.63;5057254;28;20334;-80
2022/10/05 08:11:59;;;;;;;3.95;2.50;;;;;;;14.52;100.00;101453.97;5072388;28;20032;-80
2022/10/05 08:14:32;;;;;;;3.30;1.80;;;;;;;14.57;100.00;101451.72;5056844;28;20111;-80
2022/10/05 08:17:01;;;;;;;4.78;2.13;;;;;;;14.56;100.00;101450.00;5057051;28;20060;-80
2022/10/05 08:19:41;;;;;;;2.40;1.92;;;;;;;14.66;100.00;101450.00;5057004;28;20036;-79
2022/10/05 08:22:17;;;;;;;5.00;1.92;;;;;;;14.75;100.00;101458.94;5057074;28;20029;-80
2022/10/05 08:24:53;;;;;;;2.90;1.80;;;;;;;14.78;100.00;101459.50;5057177;28;20157;-79
2022/10/05 08:27:18;;;;;;;6.53;1.95;;;;;;;14.77;100.00;101448.94;5056638;28;20056;-78
2022/10/05 08:29:58;;;;;;;2.25;1.85;;;;;;;14.89;100.00;101441.50;5056555;28;20424;-78
2022/10/05 08:32:25;;;;;;;3.38;2.00;;;;;;;14.93;100.00;101445.59;5056067;28;20033;-81
2022/10/05 08:35:12;;;;;;;4.20;2.08;;;;;;;15.02;100.00;101441.97;5057152;28;20031;-78
2022/10/05 08:37:41;;;;;;;2.50;1.90;;;;;;;15.07;100.00;101433.47;5056412;28;20142;-79
2022/10/05 08:40:20;;;;;;;3.78;2.65;;;;;;;15.19;100.00;101434.06;5056554;28;20095;-80
2022/10/05 08:43:37;;;;;;;4.07;2.00;;;;;;;15.24;100.00;101442.47;5056794;28;20044;-77
2022/10/05 08:46:20;;;;;;;5.57;2.00;;;;;;;15.27;100.00;101434.13;4998429;28;20041;-78
2022/10/05 08:49:00;;;;;;;6.50;1.77;;;;;;;15.35;100.00;101428.84;5053272;28;20434;-82
2022/10/05 08:51:52;;;;;;;9.63;1.88;;;;;;;15.43;100.00;101431.56;5053155;28;20025;-81
2022/10/05 08:54:27;;;;;;;2.42;1.85;;;;;;;15.38;100.00;101425.00;5053573;28;20374;-81
2022/10/05 08:57:31;;;;;;;3.15;1.80;;;;;;;15.38;100.00;101415.13;5053241;28;20369;-82
2022/10/05 09:00:07;;;;;;;5.05;1.70;;;;;;;15.46;100.00;101422.38;5068379;28;20033;-80
2022/10/05 09:02:56;;;;;;;15.27;1.80;;;;;;;15.50;100.00;101413.84;5053217;28;20059;-80
2022/10/05 09:05:38;;;;;;;2.53;1.42;;;;;;;15.60;99.71;101423.63;5053408;28;20093;-79
2022/10/05 09:08:16;;;;;;;3.20;1.50;;;;;;;15.58;100.00;101414.91;5053348;28;20077;-81
2022/10/05 09:11:04;;;;;;;5.18;1.50;;;;;;;15.67;100.00;101416.66;5052582;28;20028;-80
2022/10/05 09:13:39;;;;;;;5.28;1.60;;;;;;;15.68;100.00;101419.16;5052685;28;20120;-80
2022/10/05 09:16:23;;;;;;;4.88;1.70;;;;;;;15.74;100.00;101415.00;5052854;28;20055;-79
2022/10/05 09:18:51;;;;;;;4.28;1.58;;;;;;;15.81;100.00;101420.63;5052944;28;20052;-79
2022/10/05 09:21:19;;;;;;;3.65;1.45;;;;;;;15.81;99.81;101418.78;5053118;28;20033;-80
2022/10/05 09:23:53;;;;;;;2.17;1.40;;;;;;;15.71;97.87;101414.50;5052586;28;20053;-81
2022/10/05 09:26:28;;;;;;;3.05;1.60;;;;;;;15.72;98.95;101417.03;5053214;28;20056;-82
2022/10/05 09:29:32;;;;;;;2.88;1.60;;;;;;;15.74;96.73;101420.38;5052447;28;20043;-80
2022/10/05 09:32:15;;;;;;;3.72;1.35;;;;;;;15.73;98.25;101415.19;4980925;28;20043;-83
2022/10/05 09:35:19;;;;;;;3.15;1.40;;;;;;;15.59;96.90;101424.66;5051626;28;20369;-84
2022/10/05 09:38:09;;;;;;;3.80;1.30;;;;;;;15.55;97.65;101418.75;5036561;28;20347;-83
2022/10/05 09:40:59;;;;;;;15.52;1.80;;;;;;;15.55;97.29;101421.44;5050773;28;20067;-84
2022/10/05 09:43:37;;;;;;;6.32;1.67;;;;;;;15.64;97.91;101416.97;5050534;28;20077;-81
2022/10/05 09:46:43;;;;;;;3.60;1.30;;;;;;;15.61;98.37;101420.78;5067415;28;20520;-84
2022/10/05 09:49:38;;;;;;;4.03;1.52;;;;;;;15.52;97.13;101417.25;5050328;28;20418;-79
2022/10/05 09:52:17;;;;;;;10.70;1.50;;;;;;;15.49;96.93;101424.75;5051632;28;20078;-79
2022/10/05 09:54:48;;;;;;;3.55;1.50;;;;;;;15.44;96.77;101419.03;5051272;28;20433;-80
2022/10/05 09:57:30;;;;;;;5.47;1.30;;;;;;;15.37;96.81;101420.63;5051711;28;20065;-81
2022/10/05 10:00:08;;;;;;;6.53;2.15;;;;;;;15.33;97.71;101404.00;5051553;28;20037;-81
2022/10/05 10:03:04;;;;;;;2.92;1.30;;;;;;;15.38;99.68;101412.44;5051966;28;20473;-77
2022/10/05 10:05:32;;;;;;;6.45;1.70;;;;;;;15.45;98.95;101401.91;5051147;28;20160;-84
2022/10/05 10:08:28;;;;;;;3.72;1.40;;;;;;;15.45;97.70;101404.59;5052042;28;20033;-80
2022/10/05 10:11:12;;;;;;;2.10;1.33;;;;;;;15.44;97.55;101403.75;5051280;28;20183;-78
2022/10/05 10:14:15;;;;;;;2.47;1.23;;;;;;;15.55;97.73;101415.22;5051516;28;20103;-81
2022/10/05 10:16:59;;;;;;;2.35;1.40;;;;;;;15.36;97.44;101400.19;5051106;28;20029;-82
2022/10/05 10:19:45;;;;;;;2.67;1.50;;;;;;;15.34;98.60;101406.53;5051039;28;20056;-81
2022/10/05 10:22:28;;;;;;;3.35;1.40;;;;;;;15.39;99.63;101403.41;5051500;28;20033;-77
2022/10/05 10:25:00;;;;;;;2.70;1.48;;;;;;;15.45;98.17;101393.88;5051233;28;20079;-76
2022/10/05 10:27:44;;;;;;;;;;;;;;;15.42;97.84;101404.91;5051085;28;20418;-78
2022/10/05 10:30:31;;;;;;;8.23;1.30;;;;;;;15.44;98.04;101408.28;5050510;28;19974;-80
2022/10/05 10:33:30;;;;;;;2.50;1.35;;;;;;;15.32;98.30;101402.34;5051288;28;20086;-84
2022/10/05 10:36:03;;;;;;;3.38;1.48;;;;;;;15.36;98.64;101395.69;5051296;28;20074;-81
2022/10/05 10:38:50;;;;;;;3.03;1.30;;;;;;;15.40;99.02;101399.72;5049339;28;20033;-86
2022/10/05 10:41:36;;;;;;;2.00;1.40;;;;;;;15.36;99.39;101395.69;5051044;28;20070;-81
2022/10/05 10:44:36;;;;;;;4.35;1.65;;;;;;;15.42;99.51;101387.00;5051114;28;20025;-80
2022/10/05 10:47:38;;;;;;;2.85;1.80;;;;;;;15.34;99.82;101397.66;5050986;28;20044;-87
2022/10/05 10:50:38;;;;;;;4.07;2.10;;;;;;;15.40;100.00;101391.66;5050999;28;20135;-84
2022/10/05 10:53:56;;;;;;;5.40;1.92;;;;;;;15.43;100.00;101398.56;5051102;28;20033;-77
2022/10/05 10:56:43;;;;;;;5.78;2.40;;;;;;;15.43;100.00;101396.72;5025272;28;20401;-83
2022/10/05 10:59:27;;;;;;;10.98;2.20;;;;;;;15.48;99.63;101393.56;5050586;28;20068;-83
2022/10/05 11:01:55;;;;;;;10.57;2.80;;;;;;;15.52;99.29;101398.47;5050368;28;20456;-81
2022/10/05 11:04:41;;;;;;;5.93;2.13;;;;;;;15.54;100.00;101400.13;5065647;28;20107;-80
2022/10/05 11:07:23;;;;;;;4.07;2.10;;;;;;;15.54;100.00;101394.78;5050589;28;20033;-75
2022/10/05 11:10:08;;;;;;;6.68;2.13;;;;;;;15.55;98.92;101397.28;5050076;28;20056;-80
2022/10/05 11:12:51;;;;;;;8.73;2.30;;;;;;;15.50;99.60;101386.22;5050748;28;20024;-82
2022/10/05 11:15:32;;;;;;;3.78;2.08;;;;;;;15.57;99.86;101394.44;5065726;28;20036;-80
2022/10/05 11:18:07;;;;;;;5.38;2.13;;;;;;;15.63;100.00;101397.34;5050013;28;20162;-80
2022/10/05 11:20:54;;;;;;;6.43;2.33;;;;;;;15.60;100.00;101400.34;5050169;28;20102;-79
2022/10/05 11:23:23;;;;;;;3.05;2.40;;;;;;;15.63;99.02;101386.63;5050457;28;20057;-80
2022/10/05 11:26:26;;;;;;;3.38;2.15;;;;;;;15.69;99.43;101377.94;5065412;28;20581;-83
2022/10/05 11:29:16;;;;;;;10.93;2.67;;;;;;;15.86;100.00;101365.47;5049808;28;20021;-82
2022/10/05 11:31:57;;;;;;;6.40;2.28;;;;;;;15.95;98.58;101384.28;5050038;28;20029;-86
2022/10/05 11:34:39;;;;;;;4.43;2.77;;;;;;;16.06;97.87;101373.25;5050267;28;20441;-83
2022/10/05 11:37:30;;;;;;;3.28;2.30;;;;;;;16.12;98.36;101352.97;5050554;28;20109;-82
2022/10/05 11:40:33;;;;;;;5.32;2.15;;;;;;;16.25;96.90;101357.91;5050387;28;20032;-83
2022/10/05 11:43:22;;;;;;;6.65;2.67;;;;;;;16.44;95.95;101352.22;5050443;28;20087;-81
2022/10/05 11:46:12;;;;;;;5.43;1.83;;;;;;;16.56;93.42;101361.63;5050222;28;20029;-88
2022/10/05 11:48:43;;;;;;;3.15;1.88;;;;;;;16.53;92.43;101350.41;5048952;28;20084;-84
2022/10/05 11:51:27;;;;;;;3.33;1.90;;;;;;;16.45;92.68;101348.56;5065444;28;20338;-83
2022/10/05 11:54:08;;;;;;;6.15;2.00;;;;;;;16.49;93.49;101339.13;5050270;28;20029;-81
2022/10/05 11:56:40;;;;;;;2.95;1.85;;;;;;;16.47;94.48;101345.69;5050413;28;20124;-77
2022/10/05 11:59:18;;;;;;;6.82;2.00;;;;;;;16.44;93.23;101340.66;5050503;28;20507;-79
2022/10/05 12:01:47;;;;;;;2.72;2.00;;;;;;;16.37;92.91;101338.59;5050514;28;20029;-80
2022/10/05 12:04:26;;;;;;;7.80;1.70;;;;;;;16.38;92.21;101336.78;5049764;28;20049;-80
2022/10/05 12:07:03;;;;;;;4.45;2.05;;;;;;;16.40;94.52;101332.91;5050531;28;20029;-79
2022/10/05 12:12:43;;;;;;;3.83;1.90;;;;;;;16.49;93.01;101320.34;5049885;28;20114;-80
2022/10/05 12:15:22;;;;;;;7.65;1.90;;;;;;;16.40;93.84;101316.78;5049411;28;20476;-78
2022/10/05 12:17:56;;;;;;;5.35;1.92;;;;;;;16.43;93.56;101326.38;5049735;28;20029;-80
2022/10/05 12:20:39;;;;;;;4.25;1.80;;;;;;;16.51;93.89;101325.53;5049947;28;20029;-79
2022/10/05 12:23:13;;;;;;;8.50;2.08;;;;;;;16.55;93.50;101329.56;5053689;28;20067;-77
2022/10/05 12:26:22;;;;;;;9.07;1.77;;;;;;;16.63;92.38;101323.38;5053678;28;20045;-79
2022/10/05 12:29:07;;;;;;;3.95;1.92;;;;;;;16.61;93.43;101318.16;5041325;28;20508;-79
2022/10/05 12:31:59;;;;;;;3.33;1.80;;;;;;;16.65;91.58;101314.13;5053071;28;20486;-80